Time;durP1;ratioP1;P1;durP2;ratioP2;P2;SDS_P1;SDS_P2;PMS_P1;PMS_P2;Temp;Humidity;BMP_temperature;BMP_pressure;BME280_temperature;BME280_humidity;BME280_pressure;Samples;Min_cycle;Max_cycle;Signal;HPM_P1;HPM_P2
2022/04/04 00:09:19;;;;;;;9.45;4.10;;;-0.90;99.90;;;;;;19797758;29;20039;-48
2022/04/04 00:19:22;;;;;;;8.38;3.70;;;-0.90;99.90;;;;;;19833534;29;20067;-48
2022/04/04 00:29:25;;;;;;;6.15;3.30;;;-0.90;99.90;;;;;;19877093;29;20043;-48
2022/04/04 00:39:28;;;;;;;6.82;3.90;;;-1.00;99.90;;;;;;19819331;29;20043;-58
2022/04/04 00:49:30;;;;;;;7.75;4.15;;;-1.00;99.90;;;;;;19820953;29;20092;-46
2022/04/04 00:59:34;;;;;;;9.00;4.78;;;-1.10;99.90;;;;;;19856634;29;20514;-47
2022/04/04 01:09:37;;;;;;;8.25;4.05;;;-1.10;99.90;;;;;;19852110;29;20046;-48
2022/04/04 01:19:40;;;;;;;7.53;4.60;;;-1.10;99.90;;;;;;19836471;29;20542;-50
2022/04/04 01:29:42;;;;;;;7.53;4.45;;;-1.10;99.90;;;;;;19810090;29;20072;-49
2022/04/04 01:39:45;;;;;;;9.27;4.38;;;-1.20;99.90;;;;;;19824334;29;20208;-58
2022/04/04 01:49:50;;;;;;;10.20;4.80;;;-1.20;99.90;;;;;;19881661;29;20119;-51
2022/04/04 01:59:52;;;;;;;5.55;3.75;;;-1.20;99.90;;;;;;19867374;29;20082;-59
2022/04/04 02:09:58;;;;;;;6.15;3.78;;;-1.40;99.90;;;;;;19879149;29;20047;-48
2022/04/04 02:20:01;;;;;;;5.70;3.60;;;-1.40;99.90;;;;;;19816879;29;20078;-48
2022/04/04 02:30:04;;;;;;;6.47;3.28;;;-1.50;99.90;;;;;;19803261;29;20051;-48
2022/04/04 02:40:07;;;;;;;4.63;2.58;;;-1.50;99.90;;;;;;19829805;29;20074;-58
2022/04/04 02:50:11;;;;;;;5.10;2.90;;;-1.50;99.90;;;;;;19848049;29;20107;-48
2022/04/04 03:00:15;;;;;;;5.63;3.17;;;-1.60;99.90;;;;;;19800280;29;20155;-49
2022/04/04 03:10:18;;;;;;;6.97;3.10;;;-1.70;99.90;;;;;;19833388;29;20043;-51
2022/04/04 03:20:23;;;;;;;4.32;2.42;;;-1.60;99.90;;;;;;19859520;29;20139;-48
2022/04/04 03:30:28;;;;;;;3.38;2.00;;;-1.70;99.90;;;;;;19873268;29;20068;-47
2022/04/04 03:40:31;;;;;;;4.32;2.22;;;-1.70;99.90;;;;;;19857154;29;20066;-52
2022/04/04 03:50:34;;;;;;;4.43;2.22;;;-1.60;99.90;;;;;;19810651;29;20096;-52
2022/04/04 04:00:41;;;;;;;3.25;1.95;;;-1.60;99.90;;;;;;19838102;29;20510;-50
2022/04/04 04:10:43;;;;;;;3.85;2.20;;;-1.60;99.90;;;;;;19871590;29;20112;-58
2022/04/04 04:20:46;;;;;;;4.47;1.65;;;-1.70;99.90;;;;;;19861271;29;20079;-49
2022/04/04 04:30:48;;;;;;;3.85;1.90;;;-1.60;99.90;;;;;;19883225;29;20070;-49
2022/04/04 04:40:51;;;;;;;6.20;2.20;;;-1.70;99.90;;;;;;19839900;29;20066;-58
2022/04/04 04:50:53;;;;;;;3.20;2.20;;;-1.80;99.90;;;;;;19809308;29;20051;-50
2022/04/04 05:00:56;;;;;;;3.63;1.90;;;-2.10;99.90;;;;;;19850716;29;20050;-51
2022/04/04 05:11:00;;;;;;;4.10;1.80;;;-2.30;99.90;;;;;;19828594;29;20051;-47
2022/04/04 05:21:03;;;;;;;4.00;2.03;;;-2.60;99.90;;;;;;19830416;29;20073;-48
2022/04/04 05:31:06;;;;;;;3.47;2.13;;;-2.80;99.90;;;;;;19806652;29;20043;-58
2022/04/04 05:41:09;;;;;;;7.68;2.42;;;-2.90;99.90;;;;;;19853085;29;20083;-58
2022/04/04 05:51:16;;;;;;;6.07;2.78;;;-2.90;99.90;;;;;;19875510;29;20086;-58
2022/04/04 06:01:19;;;;;;;5.00;2.60;;;-2.80;99.90;;;;;;19827260;29;20074;-50
2022/04/04 06:11:22;;;;;;;4.78;2.15;;;-2.50;99.90;;;;;;19804239;29;20321;-48
2022/04/04 06:21:25;;;;;;;3.95;2.10;;;-1.60;99.90;;;;;;19829609;29;20567;-48
2022/04/04 06:31:27;;;;;;;4.38;2.55;;;-0.40;99.90;;;;;;19838427;29;20046;-51
2022/04/04 06:41:31;;;;;;;3.70;2.28;;;0.10;99.90;;;;;;19846048;29;20752;-49
2022/04/04 06:51:34;;;;;;;3.03;2.08;;;0.30;99.90;;;;;;19837916;29;20494;-58
2022/04/04 07:01:37;;;;;;;8.65;2.22;;;0.00;99.90;;;;;;19918276;29;20090;-50
2022/04/04 07:11:40;;;;;;;4.07;2.20;;;-0.30;99.90;;;;;;19918184;29;20078;-49
2022/04/04 07:21:44;;;;;;;4.47;2.35;;;-0.40;99.90;;;;;;19935756;29;20078;-50
2022/04/04 07:31:46;;;;;;;3.83;2.13;;;-0.70;99.90;;;;;;19929878;29;20074;-52
2022/04/04 07:41:49;;;;;;;5.53;2.60;;;-0.80;99.90;;;;;;19821083;29;20132;-57
2022/04/04 07:51:52;;;;;;;4.97;2.80;;;0.10;99.90;;;;;;19815064;29;20104;-52
2022/04/04 08:01:54;;;;;;;5.88;2.80;;;1.50;99.90;;;;;;19872532;29;20139;-53
2022/04/04 08:11:57;;;;;;;5.10;3.20;;;2.40;99.90;;;;;;19845864;29;20495;-50
2022/04/04 08:22:01;;;;;;;4.82;2.95;;;3.30;99.90;;;;;;19834269;29;20078;-53
2022/04/04 08:32:05;;;;;;;5.40;3.03;;;3.40;99.90;;;;;;19837467;29;20038;-52
2022/04/04 08:42:08;;;;;;;4.68;2.92;;;3.40;99.90;;;;;;19820754;29;20493;-48
2022/04/04 08:52:10;;;;;;;6.88;2.63;;;3.30;99.90;;;;;;19846456;29;20092;-51
2022/04/04 09:02:15;;;;;;;4.30;2.85;;;3.00;99.90;;;;;;19816943;29;20047;-49
2022/04/04 09:12:21;;;;;;;5.72;2.90;;;2.80;99.90;;;;;;19831221;29;20043;-54
2022/04/04 09:22:25;;;;;;;3.53;2.45;;;3.00;99.90;;;;;;19823099;29;20062;-53
2022/04/04 09:32:39;;;;;;;4.90;2.65;;;3.30;99.90;;;;;;19822142;29;20104;-51
2022/04/04 09:42:58;;;;;;;4.18;2.42;;;4.00;99.90;;;;;;19863013;29;20051;-50
2022/04/04 09:53:02;;;;;;;4.25;2.47;;;4.60;99.90;;;;;;19838642;29;20051;-52
2022/04/04 10:03:12;;;;;;;4.38;2.63;;;6.00;99.90;;;;;;19827809;29;20071;-51
2022/04/04 10:13:16;;;;;;;4.07;2.50;;;6.60;99.90;;;;;;19838919;29;20100;-51
2022/04/04 10:23:22;;;;;;;3.75;2.72;;;6.30;99.90;;;;;;19831080;29;20070;-51
2022/04/04 10:33:25;;;;;;;4.93;3.00;;;5.60;99.90;;;;;;19859180;29;20112;-51
2022/04/04 10:43:38;;;;;;;5.43;3.00;;;5.00;99.90;;;;;;19801689;29;20120;-49
2022/04/04 10:53:44;;;;;;;6.00;3.45;;;4.80;99.90;;;;;;19858277;29;20050;-51
2022/04/04 11:03:52;;;;;;;5.65;3.70;;;4.50;99.90;;;;;;19818297;29;20051;-50
2022/04/04 11:13:55;;;;;;;5.82;3.70;;;3.90;99.90;;;;;;19832961;29;20035;-48
2022/04/04 11:24:06;;;;;;;6.15;3.95;;;3.40;99.90;;;;;;19825691;29;20457;-48
2022/04/04 11:34:13;;;;;;;5.17;3.17;;;3.50;99.90;;;;;;19814076;29;20503;-58
2022/04/04 11:44:27;;;;;;;6.82;3.95;;;3.70;99.90;;;;;;19798294;29;20065;-49
2022/04/04 11:54:41;;;;;;;6.03;3.97;;;4.00;99.90;;;;;;19824244;29;20055;-47
2022/04/04 12:04:46;;;;;;;5.68;3.58;;;4.10;99.90;;;;;;19823039;29;20426;-58
2022/04/04 12:14:49;;;;;;;6.75;4.50;;;4.30;99.90;;;;;;19829829;29;20058;-52
2022/04/04 12:24:56;;;;;;;7.50;4.10;;;4.80;99.90;;;;;;19813434;29;20051;-52
2022/04/04 12:35:08;;;;;;;6.85;4.20;;;5.00;99.90;;;;;;19812206;29;20043;-59
2022/04/04 12:45:11;;;;;;;9.38;4.93;;;5.00;99.90;;;;;;19841333;29;20039;-52
2022/04/04 12:55:15;;;;;;;6.95;4.55;;;4.10;99.90;;;;;;19842084;29;20488;-59
2022/04/04 13:05:21;;;;;;;10.18;4.57;;;3.90;99.90;;;;;;19812372;29;20352;-49
2022/04/04 13:15:40;;;;;;;6.45;4.18;;;4.60;99.90;;;;;;19818743;29;20473;-51
2022/04/04 13:25:53;;;;;;;9.35;5.30;;;6.00;99.90;;;;;;19832696;29;20500;-51
2022/04/04 13:35:56;;;;;;;7.55;4.95;;;5.50;99.90;;;;;;19809434;29;20058;-54
2022/04/04 13:45:59;;;;;;;8.30;5.60;;;5.20;99.90;;;;;;19836277;29;20100;-48
2022/04/04 13:56:05;;;;;;;8.45;6.00;;;4.80;99.90;;;;;;19785507;29;20058;-49
2022/04/04 14:06:19;;;;;;;10.05;6.18;;;3.90;99.90;;;;;;19879017;29;20046;-48
2022/04/04 14:16:39;;;;;;;7.47;5.03;;;3.80;99.90;;;;;;19839130;29;20142;-50
2022/04/04 14:26:45;;;;;;;9.30;4.38;;;3.90;99.90;;;;;;19840246;29;20079;-52
2022/04/04 14:36:47;;;;;;;7.55;4.32;;;3.90;99.90;;;;;;19813074;29;20156;-48
2022/04/04 14:46:50;;;;;;;7.45;4.85;;;3.40;99.90;;;;;;19835574;29;20104;-51
2022/04/04 14:57:01;;;;;;;10.65;5.80;;;3.20;99.90;;;;;;19802748;29;20078;-50
2022/04/04 15:07:04;;;;;;;9.98;6.38;;;3.10;99.90;;;;;;19835876;29;20147;-48
2022/04/04 15:17:07;;;;;;;10.48;6.35;;;3.20;99.90;;;;;;19816924;29;20151;-49
2022/04/04 15:27:10;;;;;;;10.57;6.95;;;3.20;99.90;;;;;;19802530;29;20074;-49
2022/04/04 15:37:17;;;;;;;11.25;6.80;;;3.20;99.90;;;;;;19790712;29;20100;-49
2022/04/04 15:47:20;;;;;;;12.38;7.70;;;3.00;99.90;;;;;;19836923;29;20171;-49
2022/04/04 15:57:23;;;;;;;12.20;7.00;;;3.10;99.90;;;;;;19810984;29;20159;-47
2022/04/04 16:07:25;;;;;;;12.10;7.93;;;3.10;99.90;;;;;;19867881;29;20127;-47
2022/04/04 16:17:28;;;;;;;11.10;7.80;;;3.00;99.90;;;;;;19799648;29;20564;-49
2022/04/04 16:27:31;;;;;;;13.63;8.88;;;2.80;99.90;;;;;;19834310;29;20078;-48
2022/04/04 16:37:34;;;;;;;13.65;8.35;;;2.70;99.90;;;;;;19842074;29;20078;-47
2022/04/04 16:47:36;;;;;;;18.98;10.02;;;2.80;99.90;;;;;;19796817;29;20124;-47
2022/04/04 16:57:40;;;;;;;19.45;10.13;;;2.70;99.90;;;;;;19863516;29;20078;-47
2022/04/04 17:07:43;;;;;;;14.75;9.95;;;2.50;99.90;;;;;;19881930;29;20047;-48
2022/04/04 17:17:45;;;;;;;16.10;10.38;;;2.30;99.90;;;;;;19859573;29;20499;-51
2022/04/04 17:27:49;;;;;;;17.38;11.05;;;2.20;99.90;;;;;;19851281;29;20042;-47
2022/04/04 17:37:51;;;;;;;17.33;11.07;;;2.00;99.90;;;;;;19809414;29;20457;-47
2022/04/04 17:47:54;;;;;;;15.70;10.27;;;1.70;99.90;;;;;;19838223;29;20039;-50
2022/04/04 17:57:56;;;;;;;17.30;10.52;;;1.60;99.90;;;;;;19871030;29;20086;-47
2022/04/04 18:07:59;;;;;;;17.65;10.77;;;1.30;99.90;;;;;;19812264;29;20063;-58
2022/04/04 18:18:02;;;;;;;22.55;12.35;;;1.30;99.90;;;;;;19847757;29;20511;-46
2022/04/04 18:28:05;;;;;;;21.42;12.23;;;1.20;99.90;;;;;;19835493;29;20458;-48
2022/04/04 18:38:08;;;;;;;18.85;11.48;;;1.10;99.90;;;;;;19854132;29;20108;-50
2022/04/04 18:48:11;;;;;;;21.48;13.73;;;1.10;99.90;;;;;;19801599;29;20071;-48
2022/04/04 18:58:14;;;;;;;17.10;11.65;;;1.10;99.90;;;;;;19821543;29;20055;-50
2022/04/04 19:08:16;;;;;;;21.33;11.00;;;1.00;99.90;;;;;;19839689;29;20107;-48
2022/04/04 19:18:21;;;;;;;19.20;12.30;;;1.00;99.90;;;;;;19836246;29;20203;-47
2022/04/04 19:28:25;;;;;;;18.77;11.40;;;0.80;99.90;;;;;;19808835;29;20063;-51
2022/04/04 19:38:29;;;;;;;19.58;11.68;;;0.80;99.90;;;;;;19851424;29;20047;-47
2022/04/04 19:48:34;;;;;;;18.23;11.70;;;0.80;99.90;;;;;;19798218;29;20043;-50
2022/04/04 19:58:36;;;;;;;21.23;12.98;;;0.60;99.90;;;;;;19810993;29;20430;-50
2022/04/04 20:08:39;;;;;;;20.48;12.88;;;0.30;99.90;;;;;;19861021;29;20039;-52
2022/04/04 20:18:42;;;;;;;25.35;14.60;;;0.00;99.90;;;;;;19822321;29;20108;-49
2022/04/04 20:28:45;;;;;;;24.17;14.32;;;-0.10;99.90;;;;;;19816023;29;20418;-46
2022/04/04 20:38:47;;;;;;;25.13;15.63;;;-0.30;99.90;;;;;;19836149;29;20046;-47
2022/04/04 20:48:50;;;;;;;28.52;13.90;;;-0.70;99.90;;;;;;19870578;29;20039;-48
2022/04/04 20:58:54;;;;;;;24.10;13.32;;;-1.10;99.90;;;;;;19883545;29;20055;-46
2022/04/04 21:08:56;;;;;;;31.15;17.08;;;-1.30;99.90;;;;;;19817244;29;20035;-46
2022/04/04 21:19:02;;;;;;;29.95;16.45;;;-1.60;99.90;;;;;;19839814;29;20555;-55
2022/04/04 21:29:05;;;;;;;27.02;16.30;;;-1.70;99.90;;;;;;19810814;29;20116;-47
2022/04/04 21:39:09;;;;;;;33.05;17.83;;;-1.80;99.90;;;;;;19806384;29;20136;-57
2022/04/04 21:49:12;;;;;;;31.40;17.88;;;-1.90;99.90;;;;;;19816149;29;20616;-52
2022/04/04 21:59:15;;;;;;;31.92;17.50;;;-2.10;99.90;;;;;;19790902;29;20102;-57
2022/04/04 22:09:17;;;;;;;31.52;17.35;;;-2.10;99.90;;;;;;19837293;29;20075;-48
2022/04/04 22:19:20;;;;;;;32.15;17.38;;;-2.10;99.90;;;;;;19818481;29;20043;-50
2022/04/04 22:29:24;;;;;;;34.20;18.30;;;-2.20;99.90;;;;;;19844444;29;20475;-57
2022/04/04 22:39:27;;;;;;;29.73;14.95;;;-2.30;99.90;;;;;;19831532;29;20074;-57
2022/04/04 22:49:29;;;;;;;33.17;17.80;;;-2.30;99.90;;;;;;19875859;29;20095;-57
2022/04/04 22:59:32;;;;;;;27.88;15.18;;;-2.30;99.90;;;;;;19829682;29;20605;-55
2022/04/04 23:09:35;;;;;;;34.88;17.40;;;-2.40;99.90;;;;;;19821619;29;20043;-58
2022/04/04 23:19:38;;;;;;;32.33;17.33;;;-2.40;99.90;;;;;;19807664;29;20138;-49
2022/04/04 23:29:41;;;;;;;28.90;15.63;;;-2.30;99.90;;;;;;19846489;29;20038;-58
2022/04/04 23:39:43;;;;;;;29.77;15.85;;;-2.20;99.90;;;;;;19850539;29;20070;-58
2022/04/04 23:49:46;;;;;;;27.95;15.55;;;-2.50;99.90;;;;;;19854134;29;20126;-51
2022/04/04 23:59:48;;;;;;;30.52;16.58;;;-2.60;99.90;;;;;;19846000;29;20140;-46
